Airfield :
LOGIN :

Register | Disclaimer

   EN    FR    IT 

 










Legend :    VFR   Marginal VFR   IFR   Intensive IFR   Very Intensive IFR
Visi :
Ceiling :
>= 8 km
>= 3000ft
5 to 8 km
1000 to 3000 ft
1500m to 5 km
500 to 1000 ft
800 to 1500m
200 to 500 ft
< 800m
< 200 ft
Symbols :   Thunderstorms  Fog  Heavy snow  Heavy precipitations  Wind > 20 kt
SIGMETs :     Misc.  Thunderstorms  Icing  Turbulence  Mountain Waves  Volcanic Ashes






- Airport Elevation : 81 ft
- IATA code : SCS


EGPM - Scatsta

CURRENT METAR :
  • 070050Z AUTO 27014KT 4700 RA BKN013/// 02/01 Q0995

EXPIRED METARs :
  • 070020Z AUTO 30010KT 9999 FEW004/// BKN044/// 03/01 Q0995
  • 062350Z AUTO 29016G27KT 270V330 9999 FEW023/// SCT049/// 05/01 Q0994
  • 062320Z AUTO 27015KT 9999 FEW025/// SCT039/// 03/M00 Q0993
  • 062250Z AUTO 31012KT 9999 FEW000/// 03/01 Q0993
  • 062220Z AUTO 28011G26KT 250V320 7000 FEW015/// SCT033/// 04/01 Q0993

Expired Forecast.



MET'MAP, your aeronautical weather chart ! - Copyright ORBIFLY December 2007 - Disclaimer

ORBIFLY MET'MAP TEAM :

Programming & Development : Alexandra Zaïnal
Concept & original design : Baudouin d'Aumeries
Assistance for programming : Marc-Olivier Méhu
Technical & hardware support : Manuel Goepfert

Contact : metmap@orbifly.com




SOURCES & CREDITS :

   NOAA